VHHH Airport Information

Runway Information
Runway 07L Length 12467 ft width 197 ft
Elevation 22 ft Threshold 565 ft Heading 71
Runway 25R Length 12467 ft Width 197 ft
Elevation 23 ft Threshold 580 ft Heading 251
Runway 07R Length 12467 ft width 197 ft
Elevation 28 ft Threshold 525 ft Heading 71
Runway 25L Length 12467 ft Width 197 ft
Elevation 27 ft Threshold 0 ft Heading 251
Airport Frequencies
Type AFIS Name FLIGHT SER Frequency 122.4 MHZ
Type APP Name APP Frequency 119.1 MHZ
Type APP Name Director Frequency 119.5 MHZ
Type ATIS-A Name Arrivel Frequency 128.2 MHZ
Type ATIS-D Name Departure Frequency 127.05 MHZ
Type CAC Name ZONE CON Frequency 120.6 MHZ
Type CLD Name CLNC DEL Frequency 129.9 MHZ
Type DEP Name DEP Frequency 123.8 MHZ
Type EMG Name Hong Kong Frequency 121.5 MHZ
Type GND Name GND North Frequency 121.6 MHZ
Type GND Name GND South Frequency 122.55 MHZ
Type RDR Name Radar Frequency 121.3 MHZ
Type RDR Name PRECISION Frequency 133.7 MHZ
Type TWR Name Tower Nort Frequency 118.2 MHZ
Type TWR Name TWR South Frequency 118.4 MHZ
Airport Navaids
Type VOR-DME Name Cheung Chau Frequency 112300 KHZ
Type NDB Name Cape D Aguilar Frequency 338 KHZ
Type NDB Name Lam Chau Frequency 390 KHZ
Type VOR-DME Name Lung Kwu Chau Frequency 113200 KHZ
Type VOR-DME Name Siu Mo To Frequency 114800 KHZ
Type VOR-DME Name Tathong Point Frequency 115500 KHZ
Airport Weather Information & NOTAM
ADDS - METARS form results

(1724 UTC 17 May 2022)
Data provider http://aviationweather.gov/metar/data/
 
METAR text: VHHH 171700Z 08004KT 9999 FEW040 23/15 Q1014 NOSIG
Conditions at: VHHH (HONG KONG INTL , CN) observed 1700 UTC 17 May 2022
Temperature: 23.0°C (73°F)
Dewpoint: 15.0°C (59°F) [RH = 61%]
Pressure (altimeter): 29.94 inches Hg (1014.0 mb)
Winds: from the E (80 degrees) at 5 MPH (4 knots; 2.1 m/s)
Visibility: 6 or more miles (10+ km)
Ceiling: at least 12,000 feet AGL
Clouds: few clouds at 4000 feet AGL
Weather: no significant weather observed at this time

METAR text: VHHH 171630Z 10008KT 9999 FEW040 23/15 Q1014 NOSIG
Conditions at: VHHH (HONG KONG INTL , CN) observed 1630 UTC 17 May 2022
Temperature: 23.0°C (73°F)
Dewpoint: 15.0°C (59°F) [RH = 61%]
Pressure (altimeter): 29.94 inches Hg (1014.0 mb)
Winds: from the E (100 degrees) at 9 MPH (8 knots; 4.1 m/s)
Visibility: 6 or more miles (10+ km)
Ceiling: at least 12,000 feet AGL
Clouds: few clouds at 4000 feet AGL
Weather: no significant weather observed at this time

Forecast for: VHHH (HONG KONG INTL , CN)
Text: TAF VHHH 171700Z 1718/1824 09010KT 9999 FEW040 TX27/1806Z TN22/1722Z TN23/1822Z
Forecast period: 1800 UTC 17 May 2022 to 0000 UTC 19 May 2022
Forecast type: FROM: standard forecast or significant change
Winds: from the E (90 degrees) at 12 MPH (10 knots; 5.1 m/s)
Visibility: 6 or more miles (10+ km)
Ceiling: at least 12,000 feet AGL
Clouds: few clouds at 4000 feet AGL
Weather: no significant weather forecast for this period